Saint John Airport

Airport
ICAO code: 
CYSJ
IATA Code: 
YSJ
Summary
ICAO Region: 
NAM
Territory: 
Location: 
Saint John, New Brunswick,
Serving: 
Saint John
Elevation: 
357 ft
Coordinates: 
Aerial View: 
45° 19' 44.927" N, 65° 53' 24.617" W
Metar
Observation
CYSJ 041600Z 27007KT 260V030 15SM FEW020 FEW250 M06/M14 A3003 RMK SC1CI1 SLP177
Station
Saint John, N. B.
Date/Time
2021-12-04 16:00:00
Wind direction
270°
Wind speed
07 kts
Lowest cloud amount
few clouds
Temperature
-6°C
Dew point
-14°C
Humidity
53%
Weather condition
n/a

Description

Saint John Airport is an airport located 8 nm east northeast of Saint John, New Brunswick, Canada.

Climatology

Humid Continental climate (Köppen climate classification Dfb) - Variable weather patterns and a large seasonal temperature variance. Summers are often warm and humid with frequent thunderstorms and winters can be very cold with frequent snowfall and persistent snow cover.

Runways

Designator Length Width Surface Rops
14/32 1554 61 ASP Yes/Yes
5/23 2134 61 ASP Yes/Yes
Airport map: 
Aerial View: 

Accidents and Serious Incidents at or in the vicinity of CYSJ

SKYbrary Partners:

Safety knowledge contributed by: